sensor_id;sensor_type;location;lat;lon;timestamp;P1;durP1;ratioP1;P2;durP2;ratioP2
21480;SDS011;10902;48.158;8.634;2023-12-20T00:01:39;2.72;;;1.00;;
21480;SDS011;10902;48.158;8.634;2023-12-20T00:04:25;3.40;;;1.40;;
21480;SDS011;10902;48.158;8.634;2023-12-20T00:07:10;3.20;;;1.30;;
21480;SDS011;10902;48.158;8.634;2023-12-20T00:09:56;3.70;;;1.60;;
21480;SDS011;10902;48.158;8.634;2023-12-20T00:12:42;3.95;;;1.55;;
21480;SDS011;10902;48.158;8.634;2023-12-20T00:15:27;3.08;;;1.48;;
21480;SDS011;10902;48.158;8.634;2023-12-20T00:18:13;3.40;;;1.50;;
21480;SDS011;10902;48.158;8.634;2023-12-20T00:20:58;3.08;;;1.20;;
21480;SDS011;10902;48.158;8.634;2023-12-20T00:23:44;3.17;;;1.40;;
21480;SDS011;10902;48.158;8.634;2023-12-20T00:26:29;4.47;;;1.55;;
21480;SDS011;10902;48.158;8.634;2023-12-20T00:29:15;3.80;;;1.52;;
21480;SDS011;10902;48.158;8.634;2023-12-20T00:32:00;3.38;;;1.40;;
21480;SDS011;10902;48.158;8.634;2023-12-20T00:34:46;3.80;;;1.50;;
21480;SDS011;10902;48.158;8.634;2023-12-20T00:37:32;4.82;;;1.95;;
21480;SDS011;10902;48.158;8.634;2023-12-20T00:40:17;3.85;;;1.77;;
21480;SDS011;10902;48.158;8.634;2023-12-20T00:43:03;3.10;;;1.60;;
21480;SDS011;10902;48.158;8.634;2023-12-20T00:45:49;3.65;;;1.65;;
21480;SDS011;10902;48.158;8.634;2023-12-20T00:48:34;3.85;;;1.30;;
21480;SDS011;10902;48.158;8.634;2023-12-20T00:51:20;3.70;;;1.40;;
21480;SDS011;10902;48.158;8.634;2023-12-20T00:54:05;3.47;;;1.50;;
21480;SDS011;10902;48.158;8.634;2023-12-20T00:56:51;3.65;;;1.20;;
21480;SDS011;10902;48.158;8.634;2023-12-20T00:59:36;3.58;;;1.35;;
21480;SDS011;10902;48.158;8.634;2023-12-20T01:02:22;3.92;;;1.80;;
21480;SDS011;10902;48.158;8.634;2023-12-20T01:05:07;4.60;;;1.50;;
21480;SDS011;10902;48.158;8.634;2023-12-20T01:07:54;3.95;;;1.65;;
21480;SDS011;10902;48.158;8.634;2023-12-20T01:10:39;3.72;;;1.73;;
21480;SDS011;10902;48.158;8.634;2023-12-20T01:13:25;3.97;;;1.60;;
21480;SDS011;10902;48.158;8.634;2023-12-20T01:16:11;2.65;;;1.13;;
21480;SDS011;10902;48.158;8.634;2023-12-20T01:18:57;3.88;;;1.35;;
21480;SDS011;10902;48.158;8.634;2023-12-20T01:21:43;2.58;;;1.00;;
21480;SDS011;10902;48.158;8.634;2023-12-20T01:24:29;4.07;;;1.20;;
21480;SDS011;10902;48.158;8.634;2023-12-20T01:27:14;2.50;;;1.00;;
21480;SDS011;10902;48.158;8.634;2023-12-20T01:30:00;3.10;;;1.23;;
21480;SDS011;10902;48.158;8.634;2023-12-20T01:32:45;3.05;;;1.15;;
21480;SDS011;10902;48.158;8.634;2023-12-20T01:35:31;2.60;;;0.80;;
21480;SDS011;10902;48.158;8.634;2023-12-20T01:38:17;3.30;;;1.15;;
21480;SDS011;10902;48.158;8.634;2023-12-20T01:41:05;3.08;;;1.10;;
21480;SDS011;10902;48.158;8.634;2023-12-20T01:43:51;2.58;;;1.08;;
21480;SDS011;10902;48.158;8.634;2023-12-20T01:46:38;2.92;;;1.13;;
21480;SDS011;10902;48.158;8.634;2023-12-20T01:49:23;3.63;;;1.25;;
21480;SDS011;10902;48.158;8.634;2023-12-20T01:52:09;3.33;;;1.40;;
21480;SDS011;10902;48.158;8.634;2023-12-20T01:54:55;3.85;;;1.70;;
21480;SDS011;10902;48.158;8.634;2023-12-20T01:57:47;4.18;;;1.85;;
21480;SDS011;10902;48.158;8.634;2023-12-20T02:00:33;4.43;;;2.15;;
21480;SDS011;10902;48.158;8.634;2023-12-20T02:03:19;4.05;;;1.67;;
21480;SDS011;10902;48.158;8.634;2023-12-20T02:06:07;3.60;;;1.48;;
21480;SDS011;10902;48.158;8.634;2023-12-20T02:08:53;3.47;;;1.60;;
21480;SDS011;10902;48.158;8.634;2023-12-20T02:11:38;3.78;;;1.75;;
21480;SDS011;10902;48.158;8.634;2023-12-20T02:14:24;2.20;;;0.77;;
21480;SDS011;10902;48.158;8.634;2023-12-20T02:17:10;1.98;;;0.75;;
21480;SDS011;10902;48.158;8.634;2023-12-20T02:19:56;2.05;;;0.70;;
21480;SDS011;10902;48.158;8.634;2023-12-20T02:22:42;2.05;;;0.80;;
21480;SDS011;10902;48.158;8.634;2023-12-20T02:25:27;2.80;;;1.00;;
21480;SDS011;10902;48.158;8.634;2023-12-20T02:28:13;2.58;;;1.00;;
21480;SDS011;10902;48.158;8.634;2023-12-20T02:30:59;2.90;;;1.10;;
21480;SDS011;10902;48.158;8.634;2023-12-20T02:33:44;3.75;;;1.23;;
21480;SDS011;10902;48.158;8.634;2023-12-20T02:36:30;3.40;;;1.38;;
21480;SDS011;10902;48.158;8.634;2023-12-20T02:39:17;3.63;;;1.58;;
21480;SDS011;10902;48.158;8.634;2023-12-20T02:42:04;2.72;;;1.00;;
21480;SDS011;10902;48.158;8.634;2023-12-20T02:44:49;2.72;;;1.08;;
21480;SDS011;10902;48.158;8.634;2023-12-20T02:47:35;2.30;;;1.02;;
21480;SDS011;10902;48.158;8.634;2023-12-20T02:50:20;3.25;;;1.15;;
21480;SDS011;10902;48.158;8.634;2023-12-20T02:53:06;2.42;;;0.90;;
21480;SDS011;10902;48.158;8.634;2023-12-20T02:55:52;2.58;;;0.90;;
21480;SDS011;10902;48.158;8.634;2023-12-20T02:58:37;3.25;;;1.10;;
21480;SDS011;10902;48.158;8.634;2023-12-20T03:01:23;3.05;;;1.40;;
21480;SDS011;10902;48.158;8.634;2023-12-20T03:04:09;2.55;;;1.00;;
21480;SDS011;10902;48.158;8.634;2023-12-20T03:06:55;5.97;;;1.30;;
21480;SDS011;10902;48.158;8.634;2023-12-20T03:09:40;2.15;;;0.75;;
21480;SDS011;10902;48.158;8.634;2023-12-20T03:12:26;2.08;;;0.68;;
21480;SDS011;10902;48.158;8.634;2023-12-20T03:15:12;4.28;;;0.93;;
21480;SDS011;10902;48.158;8.634;2023-12-20T03:17:57;2.58;;;0.70;;
21480;SDS011;10902;48.158;8.634;2023-12-20T03:20:44;2.88;;;0.90;;
21480;SDS011;10902;48.158;8.634;2023-12-20T03:23:30;3.42;;;0.80;;
21480;SDS011;10902;48.158;8.634;2023-12-20T03:26:17;2.13;;;0.60;;
21480;SDS011;10902;48.158;8.634;2023-12-20T03:29:04;2.33;;;0.70;;
21480;SDS011;10902;48.158;8.634;2023-12-20T03:31:49;2.50;;;0.90;;
21480;SDS011;10902;48.158;8.634;2023-12-20T03:34:35;2.08;;;0.60;;
21480;SDS011;10902;48.158;8.634;2023-12-20T03:37:21;2.53;;;1.02;;
21480;SDS011;10902;48.158;8.634;2023-12-20T03:40:07;2.30;;;0.90;;
21480;SDS011;10902;48.158;8.634;2023-12-20T03:42:53;3.15;;;1.13;;
21480;SDS011;10902;48.158;8.634;2023-12-20T03:45:39;2.72;;;0.95;;
21480;SDS011;10902;48.158;8.634;2023-12-20T03:48:24;2.42;;;0.65;;
21480;SDS011;10902;48.158;8.634;2023-12-20T03:51:10;1.98;;;0.70;;
21480;SDS011;10902;48.158;8.634;2023-12-20T03:53:56;1.98;;;0.70;;
21480;SDS011;10902;48.158;8.634;2023-12-20T03:56:42;3.47;;;0.93;;
21480;SDS011;10902;48.158;8.634;2023-12-20T03:59:27;2.63;;;0.85;;
21480;SDS011;10902;48.158;8.634;2023-12-20T04:02:13;3.28;;;0.93;;
21480;SDS011;10902;48.158;8.634;2023-12-20T04:04:59;3.67;;;1.08;;
21480;SDS011;10902;48.158;8.634;2023-12-20T04:07:44;1.30;;;0.30;;
21480;SDS011;10902;48.158;8.634;2023-12-20T04:10:30;2.55;;;0.63;;
21480;SDS011;10902;48.158;8.634;2023-12-20T04:13:15;1.27;;;0.32;;
21480;SDS011;10902;48.158;8.634;2023-12-20T04:16:01;0.32;;;0.20;;
21480;SDS011;10902;48.158;8.634;2023-12-20T04:18:46;1.90;;;0.40;;
21480;SDS011;10902;48.158;8.634;2023-12-20T04:21:32;2.20;;;0.82;;
21480;SDS011;10902;48.158;8.634;2023-12-20T04:24:18;1.42;;;0.40;;
21480;SDS011;10902;48.158;8.634;2023-12-20T04:27:03;0.73;;;0.30;;
21480;SDS011;10902;48.158;8.634;2023-12-20T04:29:49;0.90;;;0.30;;
21480;SDS011;10902;48.158;8.634;2023-12-20T04:32:34;0.55;;;0.20;;
21480;SDS011;10902;48.158;8.634;2023-12-20T04:35:20;0.95;;;0.28;;
21480;SDS011;10902;48.158;8.634;2023-12-20T04:38:06;1.25;;;0.30;;
21480;SDS011;10902;48.158;8.634;2023-12-20T04:40:52;2.20;;;0.40;;
21480;SDS011;10902;48.158;8.634;2023-12-20T04:43:37;0.17;;;0.13;;
21480;SDS011;10902;48.158;8.634;2023-12-20T04:46:23;0.88;;;0.20;;
21480;SDS011;10902;48.158;8.634;2023-12-20T04:49:08;0.30;;;0.20;;
21480;SDS011;10902;48.158;8.634;2023-12-20T04:51:54;0.80;;;0.30;;
21480;SDS011;10902;48.158;8.634;2023-12-20T04:54:40;0.32;;;0.20;;
21480;SDS011;10902;48.158;8.634;2023-12-20T04:57:26;2.35;;;0.15;;
21480;SDS011;10902;48.158;8.634;2023-12-20T05:00:11;0.38;;;0.20;;
21480;SDS011;10902;48.158;8.634;2023-12-20T05:02:59;1.02;;;0.25;;
21480;SDS011;10902;48.158;8.634;2023-12-20T05:05:44;1.45;;;0.20;;
21480;SDS011;10902;48.158;8.634;2023-12-20T05:08:30;0.80;;;0.20;;
21480;SDS011;10902;48.158;8.634;2023-12-20T05:11:16;1.23;;;0.25;;
21480;SDS011;10902;48.158;8.634;2023-12-20T05:14:01;1.50;;;0.40;;
21480;SDS011;10902;48.158;8.634;2023-12-20T05:16:47;1.08;;;0.22;;
21480;SDS011;10902;48.158;8.634;2023-12-20T05:19:33;2.30;;;0.30;;
21480;SDS011;10902;48.158;8.634;2023-12-20T05:22:20;1.75;;;0.45;;
21480;SDS011;10902;48.158;8.634;2023-12-20T05:25:05;7.13;;;4.90;;
21480;SDS011;10902;48.158;8.634;2023-12-20T05:27:51;1.23;;;0.35;;
21480;SDS011;10902;48.158;8.634;2023-12-20T05:30:37;1.73;;;0.60;;
21480;SDS011;10902;48.158;8.634;2023-12-20T05:33:23;0.75;;;0.30;;
21480;SDS011;10902;48.158;8.634;2023-12-20T05:36:09;0.82;;;0.30;;
21480;SDS011;10902;48.158;8.634;2023-12-20T05:38:56;0.70;;;0.30;;
21480;SDS011;10902;48.158;8.634;2023-12-20T05:41:41;1.20;;;0.30;;
21480;SDS011;10902;48.158;8.634;2023-12-20T05:44:27;1.80;;;0.40;;
21480;SDS011;10902;48.158;8.634;2023-12-20T05:47:13;1.45;;;0.40;;
21480;SDS011;10902;48.158;8.634;2023-12-20T05:49:58;0.82;;;0.30;;
21480;SDS011;10902;48.158;8.634;2023-12-20T05:52:44;1.25;;;0.30;;
21480;SDS011;10902;48.158;8.634;2023-12-20T05:55:29;2.10;;;0.52;;
21480;SDS011;10902;48.158;8.634;2023-12-20T05:58:15;2.92;;;0.68;;
21480;SDS011;10902;48.158;8.634;2023-12-20T06:01:03;3.88;;;1.15;;
21480;SDS011;10902;48.158;8.634;2023-12-20T06:03:49;2.80;;;0.90;;
21480;SDS011;10902;48.158;8.634;2023-12-20T06:06:39;2.65;;;0.70;;
21480;SDS011;10902;48.158;8.634;2023-12-20T06:09:27;3.05;;;0.88;;
21480;SDS011;10902;48.158;8.634;2023-12-20T06:12:12;2.85;;;0.50;;
21480;SDS011;10902;48.158;8.634;2023-12-20T06:14:58;3.30;;;0.70;;
21480;SDS011;10902;48.158;8.634;2023-12-20T06:17:43;3.97;;;1.30;;
21480;SDS011;10902;48.158;8.634;2023-12-20T06:20:29;3.63;;;1.30;;
21480;SDS011;10902;48.158;8.634;2023-12-20T06:23:14;3.60;;;1.15;;
21480;SDS011;10902;48.158;8.634;2023-12-20T06:26:00;3.45;;;1.00;;
21480;SDS011;10902;48.158;8.634;2023-12-20T06:28:46;3.08;;;1.10;;
21480;SDS011;10902;48.158;8.634;2023-12-20T06:31:31;4.35;;;1.70;;
21480;SDS011;10902;48.158;8.634;2023-12-20T06:34:18;5.78;;;2.75;;
21480;SDS011;10902;48.158;8.634;2023-12-20T06:37:03;6.07;;;2.03;;
21480;SDS011;10902;48.158;8.634;2023-12-20T06:39:50;3.67;;;1.25;;
21480;SDS011;10902;48.158;8.634;2023-12-20T06:42:35;5.63;;;1.60;;
21480;SDS011;10902;48.158;8.634;2023-12-20T06:45:21;5.50;;;1.88;;
21480;SDS011;10902;48.158;8.634;2023-12-20T06:48:06;3.03;;;1.08;;
21480;SDS011;10902;48.158;8.634;2023-12-20T06:50:52;3.63;;;1.33;;
21480;SDS011;10902;48.158;8.634;2023-12-20T06:53:38;3.67;;;0.90;;
21480;SDS011;10902;48.158;8.634;2023-12-20T06:56:23;3.58;;;1.17;;
21480;SDS011;10902;48.158;8.634;2023-12-20T06:59:09;2.20;;;0.90;;
21480;SDS011;10902;48.158;8.634;2023-12-20T07:01:54;3.20;;;0.95;;
21480;SDS011;10902;48.158;8.634;2023-12-20T07:04:41;3.78;;;1.40;;
21480;SDS011;10902;48.158;8.634;2023-12-20T07:07:26;6.25;;;1.42;;
21480;SDS011;10902;48.158;8.634;2023-12-20T07:10:12;3.33;;;1.30;;
21480;SDS011;10902;48.158;8.634;2023-12-20T07:12:58;3.30;;;1.23;;
21480;SDS011;10902;48.158;8.634;2023-12-20T07:15:44;3.78;;;1.50;;
21480;SDS011;10902;48.158;8.634;2023-12-20T07:18:29;2.97;;;1.13;;
21480;SDS011;10902;48.158;8.634;2023-12-20T07:21:15;4.90;;;1.77;;
21480;SDS011;10902;48.158;8.634;2023-12-20T07:24:00;6.20;;;2.03;;
21480;SDS011;10902;48.158;8.634;2023-12-20T07:26:46;6.05;;;1.75;;
21480;SDS011;10902;48.158;8.634;2023-12-20T07:29:32;3.50;;;1.20;;
21480;SDS011;10902;48.158;8.634;2023-12-20T07:32:18;3.88;;;1.15;;
21480;SDS011;10902;48.158;8.634;2023-12-20T07:35:04;4.03;;;1.00;;
21480;SDS011;10902;48.158;8.634;2023-12-20T07:37:50;2.33;;;0.70;;
21480;SDS011;10902;48.158;8.634;2023-12-20T07:40:36;3.78;;;0.70;;
21480;SDS011;10902;48.158;8.634;2023-12-20T07:43:22;2.70;;;0.80;;
21480;SDS011;10902;48.158;8.634;2023-12-20T07:46:08;4.32;;;0.98;;
21480;SDS011;10902;48.158;8.634;2023-12-20T07:48:54;2.30;;;0.80;;
21480;SDS011;10902;48.158;8.634;2023-12-20T07:51:39;4.40;;;1.35;;
21480;SDS011;10902;48.158;8.634;2023-12-20T07:54:25;2.17;;;0.75;;
21480;SDS011;10902;48.158;8.634;2023-12-20T07:57:10;3.60;;;1.15;;
21480;SDS011;10902;48.158;8.634;2023-12-20T07:59:56;2.33;;;0.80;;
21480;SDS011;10902;48.158;8.634;2023-12-20T08:02:42;3.70;;;1.20;;
21480;SDS011;10902;48.158;8.634;2023-12-20T08:05:28;2.60;;;1.05;;
21480;SDS011;10902;48.158;8.634;2023-12-20T08:08:13;3.90;;;1.25;;
21480;SDS011;10902;48.158;8.634;2023-12-20T08:10:59;4.20;;;1.10;;
21480;SDS011;10902;48.158;8.634;2023-12-20T08:13:47;4.28;;;1.30;;
21480;SDS011;10902;48.158;8.634;2023-12-20T08:16:40;4.40;;;1.10;;
21480;SDS011;10902;48.158;8.634;2023-12-20T08:19:26;3.28;;;1.20;;
21480;SDS011;10902;48.158;8.634;2023-12-20T08:22:13;3.97;;;1.58;;
21480;SDS011;10902;48.158;8.634;2023-12-20T08:25:00;4.90;;;1.40;;
21480;SDS011;10902;48.158;8.634;2023-12-20T08:27:46;3.13;;;1.38;;
21480;SDS011;10902;48.158;8.634;2023-12-20T08:30:32;3.70;;;1.40;;
21480;SDS011;10902;48.158;8.634;2023-12-20T08:33:17;3.95;;;1.45;;
21480;SDS011;10902;48.158;8.634;2023-12-20T08:36:03;4.45;;;1.60;;
21480;SDS011;10902;48.158;8.634;2023-12-20T08:38:50;4.97;;;2.03;;
21480;SDS011;10902;48.158;8.634;2023-12-20T08:41:37;7.03;;;3.53;;
21480;SDS011;10902;48.158;8.634;2023-12-20T08:44:28;7.38;;;4.40;;
21480;SDS011;10902;48.158;8.634;2023-12-20T08:47:23;8.07;;;4.35;;
21480;SDS011;10902;48.158;8.634;2023-12-20T08:50:09;7.75;;;3.60;;
21480;SDS011;10902;48.158;8.634;2023-12-20T08:52:54;7.03;;;3.30;;
21480;SDS011;10902;48.158;8.634;2023-12-20T08:55:40;7.32;;;3.28;;
21480;SDS011;10902;48.158;8.634;2023-12-20T08:58:27;6.43;;;2.70;;
21480;SDS011;10902;48.158;8.634;2023-12-20T09:01:13;3.90;;;1.30;;
21480;SDS011;10902;48.158;8.634;2023-12-20T09:03:59;4.22;;;2.00;;
21480;SDS011;10902;48.158;8.634;2023-12-20T09:06:45;6.07;;;2.88;;
21480;SDS011;10902;48.158;8.634;2023-12-20T09:09:31;4.50;;;2.40;;
21480;SDS011;10902;48.158;8.634;2023-12-20T09:12:17;4.10;;;1.65;;
21480;SDS011;10902;48.158;8.634;2023-12-20T09:15:04;5.60;;;2.08;;
21480;SDS011;10902;48.158;8.634;2023-12-20T09:17:50;4.20;;;1.73;;
21480;SDS011;10902;48.158;8.634;2023-12-20T09:20:36;4.20;;;1.92;;
21480;SDS011;10902;48.158;8.634;2023-12-20T09:23:28;4.45;;;1.90;;
21480;SDS011;10902;48.158;8.634;2023-12-20T09:26:14;5.35;;;1.95;;
21480;SDS011;10902;48.158;8.634;2023-12-20T09:29:00;4.18;;;1.50;;
21480;SDS011;10902;48.158;8.634;2023-12-20T09:31:46;3.63;;;1.60;;
21480;SDS011;10902;48.158;8.634;2023-12-20T09:34:32;3.83;;;1.30;;
21480;SDS011;10902;48.158;8.634;2023-12-20T09:37:17;2.58;;;1.08;;
21480;SDS011;10902;48.158;8.634;2023-12-20T09:40:03;3.13;;;1.10;;
21480;SDS011;10902;48.158;8.634;2023-12-20T09:42:55;2.85;;;1.10;;
21480;SDS011;10902;48.158;8.634;2023-12-20T09:45:54;2.80;;;1.08;;
21480;SDS011;10902;48.158;8.634;2023-12-20T09:48:43;2.38;;;0.90;;
21480;SDS011;10902;48.158;8.634;2023-12-20T09:51:30;2.85;;;0.95;;
21480;SDS011;10902;48.158;8.634;2023-12-20T09:54:16;1.98;;;0.70;;
21480;SDS011;10902;48.158;8.634;2023-12-20T09:57:03;2.00;;;0.55;;
21480;SDS011;10902;48.158;8.634;2023-12-20T09:59:49;2.28;;;0.80;;
21480;SDS011;10902;48.158;8.634;2023-12-20T10:02:35;3.35;;;0.77;;
21480;SDS011;10902;48.158;8.634;2023-12-20T10:05:30;2.33;;;0.88;;
21480;SDS011;10902;48.158;8.634;2023-12-20T10:08:17;2.17;;;0.80;;
21480;SDS011;10902;48.158;8.634;2023-12-20T10:11:07;2.83;;;1.02;;
21480;SDS011;10902;48.158;8.634;2023-12-20T10:13:52;4.30;;;1.30;;
21480;SDS011;10902;48.158;8.634;2023-12-20T10:16:44;3.15;;;1.27;;
21480;SDS011;10902;48.158;8.634;2023-12-20T10:19:30;4.05;;;1.33;;
21480;SDS011;10902;48.158;8.634;2023-12-20T10:22:16;3.47;;;1.20;;
21480;SDS011;10902;48.158;8.634;2023-12-20T10:25:02;3.47;;;1.00;;
21480;SDS011;10902;48.158;8.634;2023-12-20T10:27:47;4.05;;;1.40;;
21480;SDS011;10902;48.158;8.634;2023-12-20T10:30:34;3.38;;;1.42;;
21480;SDS011;10902;48.158;8.634;2023-12-20T10:33:24;3.72;;;1.40;;
21480;SDS011;10902;48.158;8.634;2023-12-20T10:36:11;5.60;;;2.35;;
21480;SDS011;10902;48.158;8.634;2023-12-20T10:38:58;2.92;;;1.50;;
21480;SDS011;10902;48.158;8.634;2023-12-20T10:41:44;3.97;;;1.40;;
21480;SDS011;10902;48.158;8.634;2023-12-20T10:44:31;2.83;;;1.23;;
21480;SDS011;10902;48.158;8.634;2023-12-20T10:47:16;2.70;;;1.25;;
21480;SDS011;10902;48.158;8.634;2023-12-20T10:50:02;4.50;;;1.52;;
21480;SDS011;10902;48.158;8.634;2023-12-20T10:52:50;3.65;;;1.40;;
21480;SDS011;10902;48.158;8.634;2023-12-20T10:55:40;3.33;;;1.20;;
21480;SDS011;10902;48.158;8.634;2023-12-20T10:58:28;3.15;;;1.20;;
21480;SDS011;10902;48.158;8.634;2023-12-20T11:01:17;2.58;;;1.15;;
21480;SDS011;10902;48.158;8.634;2023-12-20T11:04:05;2.63;;;1.20;;
21480;SDS011;10902;48.158;8.634;2023-12-20T11:06:56;2.78;;;1.30;;
21480;SDS011;10902;48.158;8.634;2023-12-20T11:13:16;4.35;;;1.70;;
21480;SDS011;10902;48.158;8.634;2023-12-20T11:16:07;2.83;;;1.10;;
21480;SDS011;10902;48.158;8.634;2023-12-20T11:18:53;3.45;;;1.10;;
21480;SDS011;10902;48.158;8.634;2023-12-20T11:21:39;4.20;;;1.30;;
21480;SDS011;10902;48.158;8.634;2023-12-20T11:24:25;3.00;;;1.35;;
21480;SDS011;10902;48.158;8.634;2023-12-20T11:27:12;3.45;;;1.25;;
21480;SDS011;10902;48.158;8.634;2023-12-20T11:29:58;2.40;;;1.10;;
21480;SDS011;10902;48.158;8.634;2023-12-20T11:32:45;2.83;;;1.10;;
21480;SDS011;10902;48.158;8.634;2023-12-20T11:35:32;3.50;;;1.23;;
21480;SDS011;10902;48.158;8.634;2023-12-20T11:38:20;3.92;;;1.23;;
21480;SDS011;10902;48.158;8.634;2023-12-20T11:41:06;3.05;;;1.05;;
21480;SDS011;10902;48.158;8.634;2023-12-20T11:43:55;3.35;;;1.35;;
21480;SDS011;10902;48.158;8.634;2023-12-20T11:46:41;2.95;;;1.08;;
21480;SDS011;10902;48.158;8.634;2023-12-20T11:49:26;3.17;;;1.20;;
21480;SDS011;10902;48.158;8.634;2023-12-20T11:52:14;4.13;;;1.20;;
21480;SDS011;10902;48.158;8.634;2023-12-20T11:54:59;3.17;;;1.15;;
21480;SDS011;10902;48.158;8.634;2023-12-20T11:57:45;4.80;;;1.30;;
21480;SDS011;10902;48.158;8.634;2023-12-20T12:00:31;4.55;;;1.52;;
21480;SDS011;10902;48.158;8.634;2023-12-20T12:03:17;3.05;;;1.20;;
21480;SDS011;10902;48.158;8.634;2023-12-20T12:06:03;5.80;;;1.70;;
21480;SDS011;10902;48.158;8.634;2023-12-20T12:08:49;4.88;;;1.80;;
21480;SDS011;10902;48.158;8.634;2023-12-20T12:11:35;4.93;;;1.58;;
21480;SDS011;10902;48.158;8.634;2023-12-20T12:14:21;5.72;;;2.08;;
21480;SDS011;10902;48.158;8.634;2023-12-20T12:17:13;4.90;;;1.92;;
21480;SDS011;10902;48.158;8.634;2023-12-20T12:20:03;4.38;;;1.52;;
21480;SDS011;10902;48.158;8.634;2023-12-20T12:25:48;4.82;;;1.60;;
21480;SDS011;10902;48.158;8.634;2023-12-20T12:28:34;4.32;;;1.65;;
21480;SDS011;10902;48.158;8.634;2023-12-20T12:31:19;5.32;;;2.08;;
21480;SDS011;10902;48.158;8.634;2023-12-20T12:34:05;5.30;;;2.08;;
21480;SDS011;10902;48.158;8.634;2023-12-20T12:36:51;6.03;;;2.08;;
21480;SDS011;10902;48.158;8.634;2023-12-20T12:39:37;4.53;;;1.70;;
21480;SDS011;10902;48.158;8.634;2023-12-20T12:42:24;7.15;;;1.95;;
21480;SDS011;10902;48.158;8.634;2023-12-20T12:45:13;5.32;;;1.60;;
21480;SDS011;10902;48.158;8.634;2023-12-20T12:47:59;7.75;;;1.90;;
21480;SDS011;10902;48.158;8.634;2023-12-20T12:50:45;5.38;;;1.98;;
21480;SDS011;10902;48.158;8.634;2023-12-20T12:53:31;5.70;;;1.70;;
21480;SDS011;10902;48.158;8.634;2023-12-20T12:56:17;6.68;;;2.15;;
21480;SDS011;10902;48.158;8.634;2023-12-20T12:59:02;5.35;;;1.65;;
21480;SDS011;10902;48.158;8.634;2023-12-20T13:01:48;5.43;;;1.65;;
21480;SDS011;10902;48.158;8.634;2023-12-20T13:04:33;5.82;;;1.77;;
21480;SDS011;10902;48.158;8.634;2023-12-20T13:07:19;8.57;;;2.13;;
21480;SDS011;10902;48.158;8.634;2023-12-20T13:10:05;7.18;;;2.00;;
21480;SDS011;10902;48.158;8.634;2023-12-20T13:12:51;6.60;;;2.05;;
21480;SDS011;10902;48.158;8.634;2023-12-20T13:15:36;8.18;;;1.60;;
21480;SDS011;10902;48.158;8.634;2023-12-20T13:18:22;5.95;;;1.38;;
21480;SDS011;10902;48.158;8.634;2023-12-20T13:21:08;9.93;;;2.55;;
21480;SDS011;10902;48.158;8.634;2023-12-20T13:23:54;5.25;;;1.30;;
21480;SDS011;10902;48.158;8.634;2023-12-20T13:26:40;4.15;;;1.67;;
21480;SDS011;10902;48.158;8.634;2023-12-20T13:29:25;4.85;;;1.33;;
21480;SDS011;10902;48.158;8.634;2023-12-20T13:32:12;4.88;;;1.60;;
21480;SDS011;10902;48.158;8.634;2023-12-20T13:34:57;6.45;;;1.30;;
21480;SDS011;10902;48.158;8.634;2023-12-20T13:37:43;6.07;;;1.77;;
21480;SDS011;10902;48.158;8.634;2023-12-20T13:40:29;6.05;;;1.63;;
21480;SDS011;10902;48.158;8.634;2023-12-20T13:43:15;8.13;;;1.90;;
21480;SDS011;10902;48.158;8.634;2023-12-20T13:46:05;5.32;;;1.50;;
21480;SDS011;10902;48.158;8.634;2023-12-20T13:48:51;6.38;;;1.52;;
21480;SDS011;10902;48.158;8.634;2023-12-20T13:51:36;7.10;;;1.65;;
21480;SDS011;10902;48.158;8.634;2023-12-20T13:54:22;6.95;;;1.67;;
21480;SDS011;10902;48.158;8.634;2023-12-20T13:57:07;7.65;;;2.95;;
21480;SDS011;10902;48.158;8.634;2023-12-20T13:59:53;6.60;;;1.20;;
21480;SDS011;10902;48.158;8.634;2023-12-20T14:02:39;5.53;;;1.67;;
21480;SDS011;10902;48.158;8.634;2023-12-20T14:05:26;6.00;;;1.50;;
21480;SDS011;10902;48.158;8.634;2023-12-20T14:08:13;5.80;;;1.05;;
21480;SDS011;10902;48.158;8.634;2023-12-20T14:10:58;5.43;;;1.30;;
21480;SDS011;10902;48.158;8.634;2023-12-20T14:13:46;5.38;;;1.40;;
21480;SDS011;10902;48.158;8.634;2023-12-20T14:16:31;5.50;;;1.42;;
21480;SDS011;10902;48.158;8.634;2023-12-20T14:19:18;6.05;;;1.30;;
21480;SDS011;10902;48.158;8.634;2023-12-20T14:22:03;8.82;;;2.40;;
21480;SDS011;10902;48.158;8.634;2023-12-20T14:24:49;10.75;;;3.15;;
21480;SDS011;10902;48.158;8.634;2023-12-20T14:27:35;9.73;;;2.67;;
21480;SDS011;10902;48.158;8.634;2023-12-20T14:30:20;5.15;;;1.33;;
21480;SDS011;10902;48.158;8.634;2023-12-20T14:33:06;6.13;;;1.33;;
21480;SDS011;10902;48.158;8.634;2023-12-20T14:35:51;5.60;;;1.10;;
21480;SDS011;10902;48.158;8.634;2023-12-20T14:38:37;5.22;;;1.25;;
21480;SDS011;10902;48.158;8.634;2023-12-20T14:41:23;6.00;;;1.23;;
21480;SDS011;10902;48.158;8.634;2023-12-20T14:44:09;6.00;;;1.50;;
21480;SDS011;10902;48.158;8.634;2023-12-20T14:46:55;3.80;;;0.93;;
21480;SDS011;10902;48.158;8.634;2023-12-20T14:49:41;7.65;;;2.45;;
21480;SDS011;10902;48.158;8.634;2023-12-20T14:52:27;3.85;;;1.15;;
21480;SDS011;10902;48.158;8.634;2023-12-20T14:55:12;5.32;;;1.20;;
21480;SDS011;10902;48.158;8.634;2023-12-20T14:57:58;6.30;;;2.42;;
21480;SDS011;10902;48.158;8.634;2023-12-20T15:00:43;8.32;;;1.48;;
21480;SDS011;10902;48.158;8.634;2023-12-20T15:03:30;5.65;;;1.33;;
21480;SDS011;10902;48.158;8.634;2023-12-20T15:06:15;5.90;;;1.73;;
21480;SDS011;10902;48.158;8.634;2023-12-20T15:09:01;8.43;;;2.47;;
21480;SDS011;10902;48.158;8.634;2023-12-20T15:11:50;8.13;;;2.10;;
21480;SDS011;10902;48.158;8.634;2023-12-20T15:14:35;7.35;;;2.20;;
21480;SDS011;10902;48.158;8.634;2023-12-20T15:17:21;8.23;;;1.65;;
21480;SDS011;10902;48.158;8.634;2023-12-20T15:20:07;8.20;;;2.10;;
21480;SDS011;10902;48.158;8.634;2023-12-20T15:22:55;6.75;;;1.35;;
21480;SDS011;10902;48.158;8.634;2023-12-20T15:25:43;5.43;;;1.58;;
21480;SDS011;10902;48.158;8.634;2023-12-20T15:28:29;5.63;;;1.90;;
21480;SDS011;10902;48.158;8.634;2023-12-20T15:31:15;7.95;;;1.60;;
21480;SDS011;10902;48.158;8.634;2023-12-20T15:34:00;7.00;;;1.88;;
21480;SDS011;10902;48.158;8.634;2023-12-20T15:36:46;7.25;;;1.90;;
21480;SDS011;10902;48.158;8.634;2023-12-20T15:39:32;5.82;;;1.67;;
21480;SDS011;10902;48.158;8.634;2023-12-20T15:42:17;9.77;;;4.03;;
21480;SDS011;10902;48.158;8.634;2023-12-20T15:45:03;5.95;;;2.03;;
21480;SDS011;10902;48.158;8.634;2023-12-20T15:47:49;7.15;;;2.25;;
21480;SDS011;10902;48.158;8.634;2023-12-20T15:50:35;7.78;;;2.13;;
21480;SDS011;10902;48.158;8.634;2023-12-20T15:53:20;7.55;;;2.08;;
21480;SDS011;10902;48.158;8.634;2023-12-20T15:56:06;6.47;;;2.17;;
21480;SDS011;10902;48.158;8.634;2023-12-20T15:58:51;7.55;;;2.58;;
21480;SDS011;10902;48.158;8.634;2023-12-20T16:01:39;6.35;;;2.15;;
21480;SDS011;10902;48.158;8.634;2023-12-20T16:04:25;8.20;;;2.30;;
21480;SDS011;10902;48.158;8.634;2023-12-20T16:07:10;7.05;;;2.60;;
21480;SDS011;10902;48.158;8.634;2023-12-20T16:09:56;9.45;;;2.92;;
21480;SDS011;10902;48.158;8.634;2023-12-20T16:12:41;8.43;;;2.80;;
21480;SDS011;10902;48.158;8.634;2023-12-20T16:15:27;6.78;;;2.78;;
21480;SDS011;10902;48.158;8.634;2023-12-20T16:18:13;6.32;;;2.20;;
21480;SDS011;10902;48.158;8.634;2023-12-20T16:20:58;7.97;;;2.42;;
21480;SDS011;10902;48.158;8.634;2023-12-20T16:23:48;10.00;;;3.22;;
21480;SDS011;10902;48.158;8.634;2023-12-20T16:26:33;8.85;;;3.05;;
21480;SDS011;10902;48.158;8.634;2023-12-20T16:29:19;8.40;;;2.72;;
21480;SDS011;10902;48.158;8.634;2023-12-20T16:32:05;9.05;;;2.92;;
21480;SDS011;10902;48.158;8.634;2023-12-20T16:34:51;9.27;;;2.40;;
21480;SDS011;10902;48.158;8.634;2023-12-20T16:37:37;8.15;;;3.13;;
21480;SDS011;10902;48.158;8.634;2023-12-20T16:40:23;6.32;;;2.40;;
21480;SDS011;10902;48.158;8.634;2023-12-20T16:43:11;6.70;;;2.70;;
21480;SDS011;10902;48.158;8.634;2023-12-20T16:45:57;8.40;;;3.50;;
21480;SDS011;10902;48.158;8.634;2023-12-20T16:48:42;7.68;;;3.28;;